Jackson Hole Airport

Airport
ICAO code: 
KJAC
Summary
ICAO Region: 
NAM
Territory: 
Location: 
Jackson Hole, WY,
Coordinates: 
Aerial View: 
43° 36' 28.597" N, 110° 44' 17.51" W
Metar
Observation
KJAC 040656Z 20003KT 10SM CLR M03/M05 A3019 RMK AO2 SLP239 T10331050 401111033
Station
Jackson, Jackson Hole Airport
Date/Time
2021-12-04 06:56:00
Wind direction
200°
Wind speed
03 kts
Lowest cloud amount
n/a
Temperature
-3.3°C
Dew point
-5°C
Humidity
87%
Weather condition
n/a

Description

public airport located 11 km north of the central business district of Jackson, a town in Teton County, Wyoming, United States.

Climatology

Humid Continental climate (Köppen climate classification Dfb) - Variable weather patterns and a large seasonal temperature variance. Summers are often warm and humid with frequent thunderstorms and winters can be very cold with frequent snowfall and persistent snow cover.

Runways

Designator Length Width Surface Rops
1/19 1920 46 ASP Yes/Yes
Airport map: 
Aerial View: 

Accidents and Serious Incidents at or in the vicinity of KJAC

SKYbrary Partners:

Safety knowledge contributed by: